Time;durP1;ratioP1;P1;durP2;ratioP2;P2;SDS_P1;SDS_P2;PMS_P1;PMS_P2;Temp;Humidity;BMP_temperature;BMP_pressure;BME280_temperature;BME280_humidity;BME280_pressure;Samples;Min_cycle;Max_cycle;Signal;HPM_P1;HPM_P2
2023/08/23 00:00:07;;;;;;;5.28;2.33;;;;;;;;;;5095125;28;20206;-80
2023/08/23 00:02:34;;;;;;;4.20;2.15;;;;;;;;;;5093342;28;20544;-79
2023/08/23 00:05:01;;;;;;;5.95;2.08;;;;;;;;;;5093771;28;20225;-80
2023/08/23 00:07:28;;;;;;;4.30;2.40;;;;;;;;;;5093113;28;20294;-79
2023/08/23 00:09:57;;;;;;;5.23;2.43;;;;;;;;;;5091931;28;20289;-80
2023/08/23 00:12:24;;;;;;;7.40;2.53;;;;;;;;;;5092468;28;20281;-80
2023/08/23 00:14:51;;;;;;;3.43;2.70;;;;;;;;;;5093317;28;20281;-79
2023/08/23 00:17:18;;;;;;;5.93;2.70;;;;;;;;;;5093299;28;20289;-79
2023/08/23 00:19:46;;;;;;;4.97;2.50;;;;;;;;;;5092991;28;20245;-79
2023/08/23 00:22:13;;;;;;;6.00;2.80;;;;;;;;;;5092451;28;20849;-80
2023/08/23 00:24:40;;;;;;;3.20;2.50;;;;;;;;;;5093825;28;20253;-80
2023/08/23 00:27:09;;;;;;;5.97;2.90;;;;;;;;;;5093647;28;20205;-79
2023/08/23 00:29:37;;;;;;;6.17;2.77;;;;;;;;;;5091843;28;20204;-80
2023/08/23 00:32:05;;;;;;;4.73;2.87;;;;;;;;;;5092814;28;20206;-78
2023/08/23 00:34:32;;;;;;;6.55;2.85;;;;;;;;;;5093702;28;20317;-80
2023/08/23 00:36:59;;;;;;;6.93;3.20;;;;;;;;;;5093224;28;20218;-80
2023/08/23 00:39:26;;;;;;;3.50;3.07;;;;;;;;;;5092416;28;20274;-79
2023/08/23 00:41:53;;;;;;;6.53;3.27;;;;;;;;;;5092640;28;20281;-79
2023/08/23 00:44:22;;;;;;;4.25;3.40;;;;;;;;;;5092495;28;20694;-80
2023/08/23 00:46:49;;;;;;;6.53;3.20;;;;;;;;;;5092261;28;20190;-80
2023/08/23 00:49:16;;;;;;;5.30;4.00;;;;;;;;;;5092995;28;20281;-80
2023/08/23 00:51:44;;;;;;;6.67;3.40;;;;;;;;;;5092284;28;20190;-78
2023/08/23 00:54:11;;;;;;;7.70;3.47;;;;;;;;;;5093144;28;20756;-79
2023/08/23 00:56:38;;;;;;;5.93;3.60;;;;;;;;;;5092134;28;20225;-79
2023/08/23 00:59:07;;;;;;;5.00;3.60;;;;;;;;;;5091204;28;20245;-79
2023/08/23 01:01:36;;;;;;;5.45;3.45;;;;;;;;;;5094473;28;20677;-79
2023/08/23 01:04:03;;;;;;;5.27;3.53;;;;;;;;;;5096157;28;20225;-79
2023/08/23 01:06:45;;;;;;;6.07;3.73;;;;;;;;;;5095885;28;20281;-79
2023/08/23 01:09:17;;;;;;;5.63;3.43;;;;;;;;;;5097024;28;20194;-80
2023/08/23 01:11:47;;;;;;;8.73;4.33;;;;;;;;;;5097246;28;20601;-79
2023/08/23 01:14:18;;;;;;;6.72;4.70;;;;;;;;;;5097493;28;20222;-79
2023/08/23 01:16:49;;;;;;;6.60;3.67;;;;;;;;;;5095950;28;20222;-79
2023/08/23 01:19:30;;;;;;;8.20;4.00;;;;;;;;;;5095502;28;20194;-80
2023/08/23 01:21:58;;;;;;;6.37;3.67;;;;;;;;;;5097594;28;20752;-77
2023/08/23 01:24:26;;;;;;;7.63;4.23;;;;;;;;;;5096143;28;20331;-80
2023/08/23 01:26:54;;;;;;;8.40;3.73;;;;;;;;;;5095702;28;20282;-79
2023/08/23 01:29:21;;;;;;;9.93;4.05;;;;;;;;;;5096597;28;20285;-78
2023/08/23 01:31:50;;;;;;;7.57;4.10;;;;;;;;;;5096910;28;20236;-80
2023/08/23 01:34:21;;;;;;;5.50;3.87;;;;;;;;;;5097371;28;20715;-79
2023/08/23 01:36:50;;;;;;;6.95;4.43;;;;;;;;;;5097440;28;20273;-79
2023/08/23 01:39:17;;;;;;;5.93;3.93;;;;;;;;;;5095655;28;20218;-79
2023/08/23 01:41:46;;;;;;;6.37;3.90;;;;;;;;;;5096470;28;20221;-79
2023/08/23 01:44:13;;;;;;;8.73;4.17;;;;;;;;;;5095543;28;20747;-79
2023/08/23 01:46:40;;;;;;;8.77;3.93;;;;;;;;;;5096317;28;20781;-79
2023/08/23 01:49:08;;;;;;;7.00;3.75;;;;;;;;;;5096213;28;20654;-79
2023/08/23 01:51:35;;;;;;;8.17;4.30;;;;;;;;;;5095098;28;20667;-80
2023/08/23 01:54:02;;;;;;;6.93;3.83;;;;;;;;;;5094719;28;20269;-79
2023/08/23 01:56:29;;;;;;;6.03;4.22;;;;;;;;;;5091386;28;20226;-78
2023/08/23 01:58:58;;;;;;;6.57;4.32;;;;;;;;;;5082623;28;20227;-79
2023/08/23 02:01:25;;;;;;;7.10;4.03;;;;;;;;;;5072476;28;20294;-79
2023/08/23 02:03:52;;;;;;;5.40;3.97;;;;;;;;;;5075330;28;20230;-79
2023/08/23 02:06:19;;;;;;;5.60;3.70;;;;;;;;;;5075373;28;20372;-78
2023/08/23 02:08:49;;;;;;;5.80;3.63;;;;;;;;;;5074016;28;20291;-79
2023/08/23 02:11:16;;;;;;;6.05;3.60;;;;;;;;;;5074149;28;20226;-79
2023/08/23 02:13:43;;;;;;;7.50;4.10;;;;;;;;;;5075501;28;20250;-79
2023/08/23 02:16:12;;;;;;;6.87;4.40;;;;;;;;;;5076460;28;20231;-79
2023/08/23 02:18:40;;;;;;;7.80;4.10;;;;;;;;;;5092127;28;20199;-79
2023/08/23 02:21:08;;;;;;;10.27;4.23;;;;;;;;;;5093991;28;20285;-79
2023/08/23 02:23:35;;;;;;;7.13;4.37;;;;;;;;;;5093968;28;20663;-79
2023/08/23 02:26:02;;;;;;;7.87;4.37;;;;;;;;;;5096220;28;20230;-79
2023/08/23 02:28:29;;;;;;;6.47;4.50;;;;;;;;;;5095690;28;20244;-78
2023/08/23 02:31:02;;;;;;;6.93;4.00;;;;;;;;;;5094450;28;20222;-79
2023/08/23 02:33:31;;;;;;;7.43;4.03;;;;;;;;;;5095088;28;20305;-79
2023/08/23 02:35:58;;;;;;;7.68;4.15;;;;;;;;;;5095310;28;20565;-80
2023/08/23 02:38:26;;;;;;;8.23;4.63;;;;;;;;;;5094606;28;20230;-79
2023/08/23 02:40:56;;;;;;;5.43;4.10;;;;;;;;;;5094311;28;20214;-80
2023/08/23 02:43:23;;;;;;;8.23;4.30;;;;;;;;;;5093318;28;20233;-80
2023/08/23 02:45:51;;;;;;;6.10;3.90;;;;;;;;;;5092596;28;20702;-79
2023/08/23 02:48:18;;;;;;;8.33;4.30;;;;;;;;;;5092215;28;20289;-80
2023/08/23 02:50:51;;;;;;;6.67;4.63;;;;;;;;;;5093852;28;20281;-79
2023/08/23 02:53:20;;;;;;;7.90;4.60;;;;;;;;;;5043281;28;1438111;-79
2023/08/23 02:55:47;;;;;;;8.02;4.55;;;;;;;;;;5096174;28;20441;-78
2023/08/23 02:58:14;;;;;;;6.93;4.57;;;;;;;;;;5095340;28;20222;-79
2023/08/23 03:00:42;;;;;;;6.93;4.43;;;;;;;;;;5094095;28;20195;-79
2023/08/23 03:03:09;;;;;;;6.72;4.35;;;;;;;;;;5093645;28;20206;-79
2023/08/23 03:05:37;;;;;;;6.23;4.00;;;;;;;;;;5095015;28;21036;-79
2023/08/23 03:08:05;;;;;;;5.73;4.10;;;;;;;;;;5094052;28;20289;-80
2023/08/23 03:10:33;;;;;;;7.03;4.60;;;;;;;;;;5094982;28;20195;-79
2023/08/23 03:13:00;;;;;;;6.47;4.50;;;;;;;;;;5093366;28;20229;-78
2023/08/23 03:15:27;;;;;;;7.13;4.33;;;;;;;;;;5093335;28;20226;-80
2023/08/23 03:17:54;;;;;;;7.67;3.93;;;;;;;;;;5093791;28;20204;-79
2023/08/23 03:20:22;;;;;;;9.07;4.70;;;;;;;;;;5093020;28;20285;-79
2023/08/23 03:22:49;;;;;;;6.03;4.20;;;;;;;;;;5093656;28;20262;-79
2023/08/23 03:25:18;;;;;;;5.28;4.03;;;;;;;;;;5094224;28;20209;-79
2023/08/23 03:27:45;;;;;;;8.13;4.13;;;;;;;;;;5094523;28;20301;-79
2023/08/23 03:30:12;;;;;;;7.83;4.60;;;;;;;;;;5093419;28;20714;-79
2023/08/23 03:32:40;;;;;;;8.20;4.67;;;;;;;;;;5093985;28;20248;-79
2023/08/23 03:35:07;;;;;;;8.47;4.87;;;;;;;;;;5092780;28;20232;-80
2023/08/23 03:37:35;;;;;;;7.37;4.37;;;;;;;;;;5093765;28;20244;-79
2023/08/23 03:40:02;;;;;;;7.00;4.20;;;;;;;;;;5093767;28;20225;-79
2023/08/23 03:42:31;;;;;;;4.63;3.87;;;;;;;;;;5092768;28;20594;-79
2023/08/23 03:44:58;;;;;;;5.93;3.87;;;;;;;;;;5093052;28;20285;-79
2023/08/23 03:47:25;;;;;;;6.50;4.03;;;;;;;;;;5094405;28;20294;-79
2023/08/23 03:49:52;;;;;;;6.10;3.70;;;;;;;;;;5094501;28;20222;-79
2023/08/23 03:52:19;;;;;;;7.67;3.87;;;;;;;;;;5094598;28;20285;-79
2023/08/23 03:54:47;;;;;;;6.03;3.50;;;;;;;;;;5094050;28;20321;-77
2023/08/23 03:57:14;;;;;;;7.93;4.10;;;;;;;;;;5092345;28;20217;-79
2023/08/23 03:59:42;;;;;;;6.83;3.70;;;;;;;;;;5094391;28;20472;-79
2023/08/23 04:02:10;;;;;;;6.00;3.80;;;;;;;;;;5093739;28;20221;-79
2023/08/23 04:04:37;;;;;;;7.67;3.40;;;;;;;;;;5093187;28;20225;-79
2023/08/23 04:07:04;;;;;;;7.97;3.90;;;;;;;;;;5092384;28;20285;-78
2023/08/23 04:09:31;;;;;;;6.33;3.50;;;;;;;;;;5092126;28;20198;-79
2023/08/23 04:11:58;;;;;;;6.10;3.60;;;;;;;;;;5093064;28;20229;-79
2023/08/23 04:14:25;;;;;;;7.10;3.40;;;;;;;;;;5093967;28;20268;-79
2023/08/23 04:16:54;;;;;;;6.60;3.67;;;;;;;;;;5093526;28;20285;-79
2023/08/23 04:19:21;;;;;;;4.73;3.80;;;;;;;;;;5092742;28;20296;-80
2023/08/23 04:21:48;;;;;;;7.20;4.10;;;;;;;;;;5091852;28;20290;-79
2023/08/23 04:24:16;;;;;;;6.57;3.80;;;;;;;;;;5091921;28;20289;-79
2023/08/23 04:26:44;;;;;;;6.63;3.63;;;;;;;;;;5092481;28;20241;-79
2023/08/23 04:29:11;;;;;;;5.33;3.23;;;;;;;;;;5093029;28;20289;-79
2023/08/23 04:31:38;;;;;;;9.33;3.77;;;;;;;;;;5092596;28;20285;-79
2023/08/23 04:34:06;;;;;;;5.80;4.00;;;;;;;;;;5091604;28;20252;-79
2023/08/23 04:36:34;;;;;;;11.57;3.83;;;;;;;;;;5092240;28;20222;-79
2023/08/23 04:39:01;;;;;;;7.13;3.67;;;;;;;;;;5092900;28;20226;-79
2023/08/23 04:41:28;;;;;;;8.43;3.90;;;;;;;;;;5093863;28;20220;-79
2023/08/23 04:43:55;;;;;;;6.50;3.70;;;;;;;;;;5092045;28;20199;-79
2023/08/23 04:46:22;;;;;;;6.80;3.80;;;;;;;;;;5092435;28;20218;-78
2023/08/23 04:48:49;;;;;;;5.60;3.57;;;;;;;;;;5092109;28;20292;-79
2023/08/23 04:51:18;;;;;;;6.23;3.80;;;;;;;;;;5092419;28;20313;-80
2023/08/23 04:53:45;;;;;;;10.17;4.03;;;;;;;;;;5092824;28;20249;-79
2023/08/23 04:56:12;;;;;;;6.37;3.80;;;;;;;;;;5091495;28;20791;-79
2023/08/23 04:58:39;;;;;;;6.27;4.10;;;;;;;;;;5091367;28;20198;-79
2023/08/23 05:01:07;;;;;;;7.17;4.27;;;;;;;;;;5091505;28;20730;-79
2023/08/23 05:03:37;;;;;;;5.07;4.00;;;;;;;;;;5092921;28;20247;-79
2023/08/23 05:06:04;;;;;;;8.90;4.30;;;;;;;;;;5091699;28;20645;-79
2023/08/23 05:08:34;;;;;;;7.30;4.10;;;;;;;;;;5092249;28;20245;-79
2023/08/23 05:11:01;;;;;;;7.47;3.80;;;;;;;;;;5091959;28;20230;-79
2023/08/23 05:13:28;;;;;;;7.97;4.57;;;;;;;;;;5093397;28;20290;-78
2023/08/23 05:15:55;;;;;;;5.43;3.90;;;;;;;;;;5091308;28;20257;-80
2023/08/23 05:18:23;;;;;;;7.73;4.63;;;;;;;;;;5091000;28;20242;-80
2023/08/23 05:20:54;;;;;;;7.50;4.40;;;;;;;;;;5091742;28;20579;-79
2023/08/23 05:23:21;;;;;;;7.80;3.83;;;;;;;;;;5092408;28;20194;-79
2023/08/23 05:25:50;;;;;;;8.13;3.97;;;;;;;;;;5092059;28;20237;-79
2023/08/23 05:28:18;;;;;;;7.00;4.03;;;;;;;;;;5091813;28;20198;-79
2023/08/23 05:30:45;;;;;;;6.63;3.83;;;;;;;;;;5091667;28;20230;-79
2023/08/23 05:33:12;;;;;;;5.80;3.63;;;;;;;;;;5091823;28;20198;-78
2023/08/23 05:35:40;;;;;;;5.13;3.88;;;;;;;;;;5091374;28;20801;-79
2023/08/23 05:38:09;;;;;;;7.37;3.77;;;;;;;;;;5091270;28;20201;-79
2023/08/23 05:40:36;;;;;;;7.03;4.03;;;;;;;;;;5091652;28;20190;-79
2023/08/23 05:43:05;;;;;;;8.17;3.80;;;;;;;;;;5092333;28;20199;-79
2023/08/23 05:45:31;;;;;;;5.65;3.70;;;;;;;;;;5094382;28;20191;-78
2023/08/23 05:48:00;;;;;;;7.23;3.97;;;;;;;;;;5095291;28;20575;-79
2023/08/23 05:50:27;;;;;;;5.07;3.70;;;;;;;;;;5095184;28;20273;-77
2023/08/23 05:52:54;;;;;;;6.88;3.97;;;;;;;;;;5093676;28;20293;-79
2023/08/23 05:55:22;;;;;;;8.52;3.63;;;;;;;;;;5094914;28;20240;-77
2023/08/23 05:57:49;;;;;;;9.77;3.40;;;;;;;;;;5095548;28;20281;-79
2023/08/23 06:00:17;;;;;;;6.25;3.60;;;;;;;;;;5094607;28;20286;-77
2023/08/23 06:02:45;;;;;;;5.05;3.35;;;;;;;;;;5094721;28;20281;-77
2023/08/23 06:05:13;;;;;;;6.60;3.50;;;;;;;;;;5092320;28;20194;-79
2023/08/23 06:07:41;;;;;;;4.93;3.00;;;;;;;;;;5094090;28;20241;-78
2023/08/23 06:10:09;;;;;;;5.10;2.92;;;;;;;;;;5094347;28;20230;-77
2023/08/23 06:12:36;;;;;;;4.35;3.03;;;;;;;;;;5094277;28;20226;-79
2023/08/23 06:15:04;;;;;;;8.40;3.03;;;;;;;;;;5094533;28;20667;-78
2023/08/23 06:17:32;;;;;;;6.93;2.70;;;;;;;;;;5094462;28;20202;-78
2023/08/23 06:19:59;;;;;;;7.22;2.55;;;;;;;;;;5094523;28;20218;-77
2023/08/23 06:22:27;;;;;;;3.30;2.30;;;;;;;;;;5093972;28;20282;-79
2023/08/23 06:24:54;;;;;;;4.07;2.20;;;;;;;;;;5094724;28;20214;-78
2023/08/23 06:27:21;;;;;;;5.20;2.47;;;;;;;;;;5094730;28;20247;-79
2023/08/23 06:29:48;;;;;;;2.95;2.00;;;;;;;;;;5094151;28;20222;-78
2023/08/23 06:32:15;;;;;;;4.75;2.00;;;;;;;;;;5094428;28;20277;-76
2023/08/23 06:34:44;;;;;;;2.97;1.90;;;;;;;;;;5093988;28;20309;-76
2023/08/23 06:37:11;;;;;;;7.00;2.10;;;;;;;;;;5093877;28;20281;-76
2023/08/23 06:39:39;;;;;;;4.72;2.30;;;;;;;;;;5094072;28;20289;-77
2023/08/23 06:42:06;;;;;;;6.78;2.22;;;;;;;;;;5093258;28;20678;-77
2023/08/23 06:44:33;;;;;;;6.78;2.33;;;;;;;;;;5093556;28;20285;-79
2023/08/23 06:47:01;;;;;;;3.90;2.10;;;;;;;;;;5093778;28;20289;-79
2023/08/23 06:49:28;;;;;;;4.68;1.90;;;;;;;;;;5093065;28;20289;-79
2023/08/23 06:51:57;;;;;;;3.45;1.80;;;;;;;;;;5092998;28;20195;-79
2023/08/23 06:54:24;;;;;;;4.05;1.67;;;;;;;;;;5093187;28;20297;-78
2023/08/23 06:56:51;;;;;;;4.93;1.80;;;;;;;;;;5093823;28;20285;-77
2023/08/23 06:59:18;;;;;;;5.05;1.88;;;;;;;;;;5091831;28;20222;-78
2023/08/23 07:01:45;;;;;;;2.53;1.60;;;;;;;;;;5093098;28;20237;-78
2023/08/23 07:04:13;;;;;;;3.38;1.50;;;;;;;;;;5093199;28;20596;-78
2023/08/23 07:06:40;;;;;;;3.95;1.40;;;;;;;;;;5092661;28;20225;-80
2023/08/23 07:09:10;;;;;;;1.63;1.52;;;;;;;;;;5093210;28;20195;-80
2023/08/23 07:11:38;;;;;;;4.68;1.58;;;;;;;;;;5092746;28;20586;-81
2023/08/23 07:14:06;;;;;;;4.43;1.60;;;;;;;;;;5093315;28;20198;-81
2023/08/23 07:16:34;;;;;;;3.53;1.80;;;;;;;;;;5093012;28;20236;-79
2023/08/23 07:19:02;;;;;;;4.07;1.52;;;;;;;;;;5092801;28;20194;-80
2023/08/23 07:21:30;;;;;;;5.85;1.60;;;;;;;;;;5092310;28;20201;-80
2023/08/23 07:23:57;;;;;;;4.00;1.67;;;;;;;;;;5093017;28;20271;-79
2023/08/23 07:26:26;;;;;;;6.90;1.48;;;;;;;;;;5092695;28;20281;-80
2023/08/23 07:28:53;;;;;;;2.88;1.50;;;;;;;;;;5092564;28;20294;-79
2023/08/23 07:31:20;;;;;;;2.85;1.85;;;;;;;;;;5092836;28;20286;-78
2023/08/23 07:33:47;;;;;;;5.63;1.80;;;;;;;;;;5092805;28;20191;-80
2023/08/23 07:36:15;;;;;;;4.13;1.20;;;;;;;;;;5092035;28;20234;-79
2023/08/23 07:38:42;;;;;;;3.80;1.60;;;;;;;;;;5092636;28;20277;-79
2023/08/23 07:41:09;;;;;;;2.83;1.73;;;;;;;;;;5092687;28;20286;-79
2023/08/23 07:43:38;;;;;;;4.05;1.60;;;;;;;;;;5092569;28;20285;-79
2023/08/23 07:46:07;;;;;;;2.10;1.50;;;;;;;;;;5092214;28;20198;-78
2023/08/23 07:48:34;;;;;;;3.83;1.80;;;;;;;;;;5092659;28;20202;-80
2023/08/23 07:51:03;;;;;;;2.95;1.20;;;;;;;;;;5092091;28;20548;-79
2023/08/23 07:53:31;;;;;;;2.40;1.40;;;;;;;;;;5091560;28;20232;-79
2023/08/23 07:55:58;;;;;;;5.85;1.50;;;;;;;;;;5091978;28;20321;-79
2023/08/23 07:58:26;;;;;;;3.90;1.60;;;;;;;;;;5092510;28;20614;-80
2023/08/23 08:00:54;;;;;;;4.30;1.70;;;;;;;;;;5091997;28;20648;-80
2023/08/23 08:03:21;;;;;;;5.03;1.52;;;;;;;;;;5091035;28;20206;-80
2023/08/23 08:05:49;;;;;;;2.45;1.38;;;;;;;;;;5091936;28;20266;-80
2023/08/23 08:08:16;;;;;;;2.35;1.30;;;;;;;;;;5089804;28;20222;-79
2023/08/23 08:10:43;;;;;;;2.05;1.27;;;;;;;;;;5081697;28;20226;-80
2023/08/23 08:13:10;;;;;;;1.65;1.30;;;;;;;;;;5091259;28;20198;-81
2023/08/23 08:15:37;;;;;;;3.70;1.40;;;;;;;;;;5091715;28;20298;-81
2023/08/23 08:18:06;;;;;;;2.13;1.38;;;;;;;;;;5091676;28;20738;-80
2023/08/23 08:20:33;;;;;;;1.83;1.55;;;;;;;;;;5092473;28;20237;-80
2023/08/23 08:23:00;;;;;;;3.90;1.67;;;;;;;;;;5073402;28;20294;-79
2023/08/23 08:25:28;;;;;;;3.00;1.63;;;;;;;;;;5075658;28;20775;-79
2023/08/23 08:27:55;;;;;;;3.45;1.30;;;;;;;;;;5073221;28;20365;-80
2023/08/23 08:30:22;;;;;;;3.63;1.52;;;;;;;;;;5071363;28;20683;-78
2023/08/23 08:32:49;;;;;;;4.00;1.60;;;;;;;;;;5073762;28;20270;-78
2023/08/23 08:35:18;;;;;;;3.92;1.70;;;;;;;;;;5091652;28;20242;-77
2023/08/23 08:37:45;;;;;;;3.80;1.50;;;;;;;;;;5091297;28;20218;-79
2023/08/23 08:40:13;;;;;;;4.50;1.40;;;;;;;;;;5091610;28;20233;-80
2023/08/23 08:42:40;;;;;;;4.05;1.50;;;;;;;;;;5091074;28;20229;-80
2023/08/23 08:45:08;;;;;;;3.47;1.88;;;;;;;;;;5077917;28;20257;-78
2023/08/23 08:47:35;;;;;;;3.13;1.30;;;;;;;;;;5091273;28;20198;-78
2023/08/23 08:50:02;;;;;;;4.43;1.48;;;;;;;;;;5091564;28;20225;-78
2023/08/23 08:52:31;;;;;;;5.05;1.58;;;;;;;;;;5091813;28;20194;-75
2023/08/23 08:54:59;;;;;;;5.22;1.98;;;;;;;;;;5089057;28;20226;-80
2023/08/23 08:57:27;;;;;;;4.05;1.63;;;;;;;;;;5090903;28;20226;-79
2023/08/23 08:59:55;;;;;;;4.00;1.80;;;;;;;;;;5091155;28;20195;-79
2023/08/23 09:02:23;;;;;;;3.55;2.05;;;;;;;;;;5091166;28;20195;-80
2023/08/23 09:04:52;;;;;;;3.65;1.70;;;;;;;;;;5091133;28;20303;-82
2023/08/23 09:07:19;;;;;;;3.53;1.55;;;;;;;;;;5091100;28;20662;-80
2023/08/23 09:09:47;;;;;;;4.32;1.85;;;;;;;;;;5091081;28;20230;-81
2023/08/23 09:12:15;;;;;;;3.20;1.60;;;;;;;;;;5094705;28;20233;-82
2023/08/23 09:14:42;;;;;;;7.88;1.90;;;;;;;;;;5091334;28;20226;-81
2023/08/23 09:17:09;;;;;;;2.70;1.58;;;;;;;;;;5090580;28;20305;-80
2023/08/23 09:19:37;;;;;;;3.00;1.80;;;;;;;;;;5090637;28;20285;-81
2023/08/23 09:22:05;;;;;;;4.60;1.60;;;;;;;;;;5093023;28;20221;-80
2023/08/23 09:24:33;;;;;;;3.38;1.50;;;;;;;;;;5095134;28;20202;-81
2023/08/23 09:27:10;;;;;;;2.05;1.55;;;;;;;;;;5095680;28;20251;-81
2023/08/23 09:29:38;;;;;;;3.10;1.60;;;;;;;;;;5095847;28;20256;-80
2023/08/23 09:32:06;;;;;;;2.38;2.00;;;;;;;;;;5094516;28;20242;-79
2023/08/23 09:34:33;;;;;;;5.32;2.33;;;;;;;;;;5094615;28;20196;-80
2023/08/23 09:37:06;;;;;;;2.85;1.65;;;;;;;;;;5094676;28;20265;-79
2023/08/23 09:39:33;;;;;;;1.73;1.48;;;;;;;;;;5094683;28;20546;-80
2023/08/23 09:42:05;;;;;;;4.13;1.80;;;;;;;;;;5094846;28;20194;-80
2023/08/23 09:44:37;;;;;;;3.20;1.55;;;;;;;;;;5095431;28;20248;-80
2023/08/23 09:47:05;;;;;;;3.92;1.60;;;;;;;;;;5094555;28;20201;-81
2023/08/23 09:49:33;;;;;;;4.13;1.38;;;;;;;;;;5094361;28;20281;-81
2023/08/23 09:52:01;;;;;;;4.30;1.70;;;;;;;;;;5094483;28;20277;-79
2023/08/23 09:54:43;;;;;;;3.97;1.92;;;;;;;;;;5094516;28;20984;-79
2023/08/23 09:57:12;;;;;;;6.18;1.95;;;;;;;;;;5094167;28;20729;-80
2023/08/23 09:59:39;;;;;;;1.83;1.60;;;;;;;;;;5093217;28;20207;-80
2023/08/23 10:02:10;;;;;;;5.80;1.77;;;;;;;;;;5094703;28;20222;-79
2023/08/23 10:04:39;;;;;;;3.55;1.80;;;;;;;;;;5092541;28;20213;-80
2023/08/23 10:07:06;;;;;;;4.53;2.08;;;;;;;;;;5089829;28;20218;-80
2023/08/23 10:09:34;;;;;;;4.38;1.80;;;;;;;;;;5094554;28;20198;-78
2023/08/23 10:12:02;;;;;;;3.88;1.90;;;;;;;;;;5093618;28;20285;-80
2023/08/23 10:14:31;;;;;;;2.30;1.55;;;;;;;;;;5093617;28;20281;-79
2023/08/23 10:16:58;;;;;;;4.22;1.70;;;;;;;;;;5081064;28;20257;-81
2023/08/23 10:19:26;;;;;;;5.82;1.88;;;;;;;;;;5094039;28;20361;-79
2023/08/23 10:21:53;;;;;;;2.75;1.70;;;;;;;;;;5087040;28;20231;-79
2023/08/23 10:24:24;;;;;;;4.03;2.13;;;;;;;;;;5084177;28;20235;-80
2023/08/23 10:26:52;;;;;;;6.57;5.57;;;;;;;;;;5092777;28;20650;-79
2023/08/23 10:29:25;;;;;;;7.57;5.55;;;;;;;;;;5092381;28;20613;-80
2023/08/23 10:31:54;;;;;;;7.05;5.10;;;;;;;;;;5093524;28;20201;-80
2023/08/23 10:34:25;;;;;;;6.45;4.25;;;;;;;;;;5092148;28;20298;-81
2023/08/23 10:36:53;;;;;;;5.75;3.42;;;;;;;;;;5092633;28;20233;-81
2023/08/23 10:39:22;;;;;;;8.43;3.17;;;;;;;;;;5088956;28;20202;-81
2023/08/23 10:41:51;;;;;;;4.65;2.75;;;;;;;;;;5091946;28;20301;-81
2023/08/23 10:44:18;;;;;;;5.55;2.25;;;;;;;;;;5089207;28;20203;-80
2023/08/23 10:46:46;;;;;;;2.63;2.00;;;;;;;;;;5091217;28;20194;-81
2023/08/23 10:49:16;;;;;;;2.45;2.13;;;;;;;;;;5093890;28;20256;-80
2023/08/23 10:51:43;;;;;;;4.72;2.00;;;;;;;;;;5092581;28;20229;-81
2023/08/23 10:54:12;;;;;;;3.75;1.83;;;;;;;;;;5093517;28;20258;-80
2023/08/23 10:56:39;;;;;;;2.80;1.88;;;;;;;;;;5088467;28;20218;-80
2023/08/23 10:59:07;;;;;;;4.85;1.90;;;;;;;;;;5091605;28;20191;-79
2023/08/23 11:01:34;;;;;;;3.50;1.90;;;;;;;;;;5092141;28;20190;-80
2023/08/23 11:04:03;;;;;;;4.05;2.10;;;;;;;;;;5088711;28;20674;-80
2023/08/23 11:06:32;;;;;;;3.33;1.70;;;;;;;;;;5092227;28;20585;-79
2023/08/23 11:08:59;;;;;;;4.70;1.88;;;;;;;;;;5084013;28;20210;-78
2023/08/23 11:11:29;;;;;;;6.47;1.95;;;;;;;;;;5093000;28;20195;-79
2023/08/23 11:13:56;;;;;;;4.80;1.90;;;;;;;;;;5093632;28;20202;-78
2023/08/23 11:16:24;;;;;;;2.65;1.95;;;;;;;;;;5090423;28;20311;-78
2023/08/23 11:18:51;;;;;;;3.42;2.30;;;;;;;;;;5092104;28;20315;-80
2023/08/23 11:21:19;;;;;;;8.18;2.22;;;;;;;;;;5097915;28;20229;-81
2023/08/23 11:23:47;;;;;;;5.45;1.80;;;;;;;;;;5092426;28;20190;-82
2023/08/23 11:26:15;;;;;;;3.63;2.20;;;;;;;;;;5092109;28;20729;-82
2023/08/23 11:28:42;;;;;;;4.05;2.03;;;;;;;;;;5074076;28;20199;-81
2023/08/23 11:31:09;;;;;;;4.35;2.20;;;;;;;;;;5074563;28;20206;-83
2023/08/23 11:33:37;;;;;;;3.65;2.08;;;;;;;;;;5084101;28;20223;-83
2023/08/23 11:36:07;;;;;;;4.80;2.03;;;;;;;;;;5072208;28;20202;-79
2023/08/23 11:38:35;;;;;;;3.13;2.15;;;;;;;;;;5073324;28;20199;-78
2023/08/23 11:41:04;;;;;;;3.08;2.10;;;;;;;;;;5072806;28;20221;-80
2023/08/23 11:43:31;;;;;;;7.30;2.55;;;;;;;;;;5075333;28;20203;-80
2023/08/23 11:45:59;;;;;;;2.95;1.80;;;;;;;;;;5091947;28;20199;-78
2023/08/23 11:48:26;;;;;;;3.83;2.40;;;;;;;;;;5092714;28;20190;-80
2023/08/23 11:50:54;;;;;;;3.53;2.15;;;;;;;;;;5092432;28;20645;-79
2023/08/23 11:53:21;;;;;;;3.78;2.10;;;;;;;;;;5092823;28;20235;-80
2023/08/23 11:55:51;;;;;;;5.10;2.20;;;;;;;;;;5092232;28;20249;-80
2023/08/23 11:58:20;;;;;;;4.07;2.15;;;;;;;;;;5082806;28;20223;-80
2023/08/23 12:00:48;;;;;;;4.60;2.08;;;;;;;;;;5087210;28;20213;-80
2023/08/23 12:03:16;;;;;;;5.90;2.28;;;;;;;;;;5092957;28;20218;-79
2023/08/23 12:05:43;;;;;;;5.93;2.17;;;;;;;;;;5093361;28;20202;-82
2023/08/23 12:08:10;;;;;;;5.28;2.28;;;;;;;;;;5090962;28;20591;-80
2023/08/23 12:10:38;;;;;;;2.78;2.08;;;;;;;;;;5090650;28;20240;-79
2023/08/23 12:13:05;;;;;;;4.35;2.17;;;;;;;;;;5092682;28;20281;-80
2023/08/23 12:15:34;;;;;;;3.78;2.50;;;;;;;;;;5091543;28;20263;-79
2023/08/23 12:18:02;;;;;;;3.80;2.05;;;;;;;;;;5095559;28;20231;-79
2023/08/23 12:20:29;;;;;;;4.03;2.47;;;;;;;;;;5092358;28;20194;-80
2023/08/23 12:22:56;;;;;;;4.50;2.22;;;;;;;;;;5093184;28;20292;-80
2023/08/23 12:25:23;;;;;;;8.00;2.60;;;;;;;;;;5092810;28;20225;-80
2023/08/23 12:27:51;;;;;;;7.07;2.90;;;;;;;;;;5091603;28;20233;-80
2023/08/23 12:30:18;;;;;;;6.80;2.30;;;;;;;;;;5089375;28;20237;-80
2023/08/23 12:32:47;;;;;;;4.60;2.40;;;;;;;;;;5091112;28;20238;-80
2023/08/23 12:35:15;;;;;;;5.22;2.42;;;;;;;;;;5086062;28;20629;-80
2023/08/23 12:37:43;;;;;;;3.53;2.28;;;;;;;;;;5080346;28;20260;-80
2023/08/23 12:40:24;;;;;;;4.07;2.35;;;;;;;;;;5092538;28;20236;-80
2023/08/23 12:42:51;;;;;;;6.97;2.50;;;;;;;;;;5092826;28;20224;-78
2023/08/23 12:45:19;;;;;;;4.53;2.50;;;;;;;;;;5093354;28;20554;-80
2023/08/23 12:47:48;;;;;;;5.28;2.40;;;;;;;;;;5092660;28;20228;-80
2023/08/23 12:50:17;;;;;;;6.25;3.22;;;;;;;;;;5094983;28;20313;-79
2023/08/23 12:53:03;;;;;;;3.55;2.60;;;;;;;;;;4743263;28;10000132;-81
2023/08/23 12:55:30;;;;;;;6.43;2.60;;;;;;;;;;5089341;28;20197;-81
2023/08/23 12:57:57;;;;;;;6.85;2.25;;;;;;;;;;5091734;28;20223;-80
2023/08/23 13:00:25;;;;;;;3.63;2.40;;;;;;;;;;5091406;28;20284;-80
2023/08/23 13:02:53;;;;;;;4.10;2.30;;;;;;;;;;5092787;28;20230;-81
2023/08/23 13:05:20;;;;;;;4.00;2.30;;;;;;;;;;5092176;28;20201;-81
2023/08/23 13:07:48;;;;;;;3.50;2.45;;;;;;;;;;5092189;28;20565;-81
2023/08/23 13:10:15;;;;;;;4.22;2.38;;;;;;;;;;5091251;28;20223;-79
2023/08/23 13:12:43;;;;;;;3.28;2.20;;;;;;;;;;5082834;28;20202;-80
2023/08/23 13:15:10;;;;;;;3.20;2.45;;;;;;;;;;5070768;28;20705;-80
2023/08/23 13:17:38;;;;;;;4.38;2.38;;;;;;;;;;5087353;28;20293;-80
2023/08/23 13:20:09;;;;;;;5.75;2.20;;;;;;;;;;5090597;28;20208;-81
2023/08/23 13:22:36;;;;;;;3.60;2.58;;;;;;;;;;5074714;28;20202;-81
2023/08/23 13:25:03;;;;;;;3.60;2.55;;;;;;;;;;5071332;28;20322;-81
2023/08/23 13:27:33;;;;;;;4.55;2.50;;;;;;;;;;5070904;28;20274;-80
2023/08/23 13:30:00;;;;;;;6.05;2.53;;;;;;;;;;5071106;28;20203;-79
2023/08/23 13:32:28;;;;;;;4.43;2.42;;;;;;;;;;5075269;28;20206;-80
2023/08/23 13:34:59;;;;;;;3.10;2.30;;;;;;;;;;5082423;28;20241;-79
2023/08/23 13:37:27;;;;;;;2.90;2.20;;;;;;;;;;5090757;28;20584;-80
2023/08/23 13:39:55;;;;;;;4.90;2.90;;;;;;;;;;5081778;28;20297;-80
2023/08/23 13:42:22;;;;;;;5.93;2.53;;;;;;;;;;5089095;28;20286;-79
2023/08/23 13:44:49;;;;;;;4.53;2.33;;;;;;;;;;5090587;28;20222;-79
2023/08/23 13:47:16;;;;;;;3.33;2.47;;;;;;;;;;5080153;28;20687;-79
2023/08/23 13:49:44;;;;;;;6.25;3.00;;;;;;;;;;5090129;28;20206;-80
2023/08/23 13:52:11;;;;;;;3.35;2.55;;;;;;;;;;5090487;28;20383;-80
2023/08/23 13:54:45;;;;;;;5.05;2.85;;;;;;;;;;5090395;28;20284;-79
2023/08/23 13:57:13;;;;;;;6.70;2.85;;;;;;;;;;5091467;28;20308;-79
2023/08/23 13:59:40;;;;;;;5.88;2.60;;;;;;;;;;5089655;28;20194;-79
2023/08/23 14:02:07;;;;;;;5.63;2.80;;;;;;;;;;5089365;28;20289;-81
2023/08/23 14:04:36;;;;;;;7.70;2.92;;;;;;;;;;5088514;28;20202;-80
2023/08/23 14:07:04;;;;;;;8.02;2.83;;;;;;;;;;5088409;28;20209;-80
2023/08/23 14:09:32;;;;;;;6.32;2.90;;;;;;;;;;5086247;28;20283;-79
2023/08/23 14:12:00;;;;;;;3.83;2.90;;;;;;;;;;5089931;28;20206;-79
2023/08/23 14:14:28;;;;;;;6.68;3.20;;;;;;;;;;5090348;28;20295;-80
2023/08/23 14:16:55;;;;;;;4.10;2.92;;;;;;;;;;5090400;28;20306;-80
2023/08/23 14:19:24;;;;;;;7.00;2.60;;;;;;;;;;5090740;28;20278;-79
2023/08/23 14:21:51;;;;;;;6.82;3.05;;;;;;;;;;5089911;28;20202;-81
2023/08/23 14:24:18;;;;;;;3.63;2.55;;;;;;;;;;5088317;28;20289;-79
2023/08/23 14:26:45;;;;;;;3.92;2.65;;;;;;;;;;5090681;28;20862;-77
2023/08/23 14:29:14;;;;;;;4.40;2.50;;;;;;;;;;5086983;28;21240;-78
2023/08/23 14:31:41;;;;;;;4.07;2.60;;;;;;;;;;5089909;28;20738;-77
2023/08/23 14:34:08;;;;;;;4.30;2.75;;;;;;;;;;5090393;28;20206;-77
2023/08/23 14:36:35;;;;;;;4.60;3.38;;;;;;;;;;5090575;28;20304;-78
2023/08/23 14:39:03;;;;;;;4.88;2.78;;;;;;;;;;5090511;28;20317;-78
2023/08/23 14:41:30;;;;;;;7.60;3.00;;;;;;;;;;5089351;28;20244;-77
2023/08/23 14:43:57;;;;;;;6.93;3.08;;;;;;;;;;5090209;28;20290;-78
2023/08/23 14:46:26;;;;;;;5.30;3.00;;;;;;;;;;5087974;28;20233;-78